sensor_id;sensor_type;location;lat;lon;timestamp;temperature;humidity
67722;SHT31;58309;45.292;11.820;2023-03-01T00:02:00;2.23;80.70
67722;SHT31;58309;45.292;11.820;2023-03-01T00:04:26;2.32;80.05
67722;SHT31;58309;45.292;11.820;2023-03-01T00:06:53;2.37;79.76
67722;SHT31;58309;45.292;11.820;2023-03-01T00:09:18;2.42;79.41
67722;SHT31;58309;45.292;11.820;2023-03-01T00:11:44;2.33;79.48
67722;SHT31;58309;45.292;11.820;2023-03-01T00:14:10;2.33;79.58
67722;SHT31;58309;45.292;11.820;2023-03-01T00:16:37;2.26;79.95
67722;SHT31;58309;45.292;11.820;2023-03-01T00:19:09;2.19;79.95
67722;SHT31;58309;45.292;11.820;2023-03-01T00:21:36;2.12;80.43
67722;SHT31;58309;45.292;11.820;2023-03-01T00:24:02;1.98;80.85
67722;SHT31;58309;45.292;11.820;2023-03-01T00:26:28;1.98;80.99
67722;SHT31;58309;45.292;11.820;2023-03-01T00:28:54;1.88;81.21
67722;SHT31;58309;45.292;11.820;2023-03-01T00:31:26;1.92;80.85
67722;SHT31;58309;45.292;11.820;2023-03-01T00:33:53;2.01;80.47
67722;SHT31;58309;45.292;11.820;2023-03-01T00:36:23;2.08;80.41
67722;SHT31;58309;45.292;11.820;2023-03-01T00:38:48;2.12;80.31
67722;SHT31;58309;45.292;11.820;2023-03-01T00:41:15;2.23;79.53
67722;SHT31;58309;45.292;11.820;2023-03-01T00:43:42;2.32;79.56
67722;SHT31;58309;45.292;11.820;2023-03-01T00:46:19;2.39;79.11
67722;SHT31;58309;45.292;11.820;2023-03-01T00:48:45;2.39;79.19
67722;SHT31;58309;45.292;11.820;2023-03-01T00:51:17;2.42;79.37
67722;SHT31;58309;45.292;11.820;2023-03-01T00:53:43;2.50;79.02
67722;SHT31;58309;45.292;11.820;2023-03-01T00:56:11;2.52;79.05
67722;SHT31;58309;45.292;11.820;2023-03-01T00:58:37;2.68;78.39
67722;SHT31;58309;45.292;11.820;2023-03-01T01:01:12;2.68;78.73
67722;SHT31;58309;45.292;11.820;2023-03-01T01:03:58;2.73;78.83
67722;SHT31;58309;45.292;11.820;2023-03-01T01:06:36;2.79;78.62
67722;SHT31;58309;45.292;11.820;2023-03-01T01:09:03;2.79;78.90
67722;SHT31;58309;45.292;11.820;2023-03-01T01:11:30;2.87;78.63
67722;SHT31;58309;45.292;11.820;2023-03-01T01:13:56;2.88;78.56
67722;SHT31;58309;45.292;11.820;2023-03-01T01:16:24;2.95;77.75
67722;SHT31;58309;45.292;11.820;2023-03-01T01:18:50;3.08;77.51
67722;SHT31;58309;45.292;11.820;2023-03-01T01:21:18;3.08;77.69
67722;SHT31;58309;45.292;11.820;2023-03-01T01:23:45;3.15;77.18
67722;SHT31;58309;45.292;11.820;2023-03-01T01:26:29;3.19;76.71
67722;SHT31;58309;45.292;11.820;2023-03-01T01:28:55;3.25;76.54
67722;SHT31;58309;45.292;11.820;2023-03-01T01:31:21;3.29;76.92
67722;SHT31;58309;45.292;11.820;2023-03-01T01:33:49;3.26;77.03
67722;SHT31;58309;45.292;11.820;2023-03-01T01:36:15;3.32;76.56
67722;SHT31;58309;45.292;11.820;2023-03-01T01:38:41;3.34;76.40
67722;SHT31;58309;45.292;11.820;2023-03-01T01:41:09;3.38;76.36
67722;SHT31;58309;45.292;11.820;2023-03-01T01:43:44;3.39;76.56
67722;SHT31;58309;45.292;11.820;2023-03-01T01:48:51;3.42;76.31
67722;SHT31;58309;45.292;11.820;2023-03-01T01:51:23;3.42;75.89
67722;SHT31;58309;45.292;11.820;2023-03-01T01:53:57;3.39;76.63
67722;SHT31;58309;45.292;11.820;2023-03-01T01:56:24;3.39;76.68
67722;SHT31;58309;45.292;11.820;2023-03-01T01:58:52;3.40;76.32
67722;SHT31;58309;45.292;11.820;2023-03-01T02:01:19;3.39;76.54
67722;SHT31;58309;45.292;11.820;2023-03-01T02:03:46;3.42;76.54
67722;SHT31;58309;45.292;11.820;2023-03-01T02:06:53;3.42;76.35
67722;SHT31;58309;45.292;11.820;2023-03-01T02:09:21;3.42;76.29
67722;SHT31;58309;45.292;11.820;2023-03-01T02:11:49;3.49;76.20
67722;SHT31;58309;45.292;11.820;2023-03-01T02:14:16;3.51;76.21
67722;SHT31;58309;45.292;11.820;2023-03-01T02:16:41;3.48;76.51
67722;SHT31;58309;45.292;11.820;2023-03-01T02:19:09;3.42;76.91
67722;SHT31;58309;45.292;11.820;2023-03-01T02:21:55;3.35;77.40
67722;SHT31;58309;45.292;11.820;2023-03-01T02:24:59;3.36;77.17
67722;SHT31;58309;45.292;11.820;2023-03-01T02:27:32;3.39;76.90
67722;SHT31;58309;45.292;11.820;2023-03-01T02:29:59;3.36;77.34
67722;SHT31;58309;45.292;11.820;2023-03-01T02:32:24;3.39;77.49
67722;SHT31;58309;45.292;11.820;2023-03-01T02:34:55;3.38;77.44
67722;SHT31;58309;45.292;11.820;2023-03-01T02:37:21;3.35;77.51
67722;SHT31;58309;45.292;11.820;2023-03-01T02:39:55;3.32;77.47
67722;SHT31;58309;45.292;11.820;2023-03-01T02:42:26;3.29;77.84
67722;SHT31;58309;45.292;11.820;2023-03-01T02:44:53;3.26;77.48
67722;SHT31;58309;45.292;11.820;2023-03-01T02:47:19;3.29;77.42
67722;SHT31;58309;45.292;11.820;2023-03-01T02:49:44;3.28;77.27
67722;SHT31;58309;45.292;11.820;2023-03-01T02:52:37;3.28;77.24
67722;SHT31;58309;45.292;11.820;2023-03-01T02:55:11;3.32;76.92
67722;SHT31;58309;45.292;11.820;2023-03-01T02:57:40;3.32;76.88
67722;SHT31;58309;45.292;11.820;2023-03-01T03:00:10;3.31;76.93
67722;SHT31;58309;45.292;11.820;2023-03-01T03:02:44;3.31;76.71
67722;SHT31;58309;45.292;11.820;2023-03-01T03:05:16;3.25;77.17
67722;SHT31;58309;45.292;11.820;2023-03-01T03:07:44;3.24;77.19
67722;SHT31;58309;45.292;11.820;2023-03-01T03:10:19;3.24;77.10
67722;SHT31;58309;45.292;11.820;2023-03-01T03:13:08;3.16;77.63
67722;SHT31;58309;45.292;11.820;2023-03-01T03:15:34;3.18;77.36
67722;SHT31;58309;45.292;11.820;2023-03-01T03:18:06;3.21;77.38
67722;SHT31;58309;45.292;11.820;2023-03-01T03:20:32;3.21;77.34
67722;SHT31;58309;45.292;11.820;2023-03-01T03:22:58;3.16;77.92
67722;SHT31;58309;45.292;11.820;2023-03-01T03:25:25;3.16;77.88
67722;SHT31;58309;45.292;11.820;2023-03-01T03:27:53;3.14;78.08
67722;SHT31;58309;45.292;11.820;2023-03-01T03:30:30;3.09;78.26
67722;SHT31;58309;45.292;11.820;2023-03-01T03:32:57;3.03;78.21
67722;SHT31;58309;45.292;11.820;2023-03-01T03:35:32;3.00;78.37
67722;SHT31;58309;45.292;11.820;2023-03-01T03:38:04;2.88;78.87
67722;SHT31;58309;45.292;11.820;2023-03-01T03:40:42;2.85;78.91
67722;SHT31;58309;45.292;11.820;2023-03-01T03:43:13;2.81;79.15
67722;SHT31;58309;45.292;11.820;2023-03-01T03:45:39;2.80;79.15
67722;SHT31;58309;45.292;11.820;2023-03-01T03:48:07;2.90;78.45
67722;SHT31;58309;45.292;11.820;2023-03-01T03:50:33;2.93;78.68
67722;SHT31;58309;45.292;11.820;2023-03-01T03:53:04;2.98;78.36
67722;SHT31;58309;45.292;11.820;2023-03-01T03:55:30;3.05;78.27
67722;SHT31;58309;45.292;11.820;2023-03-01T03:57:58;3.07;78.34
67722;SHT31;58309;45.292;11.820;2023-03-01T04:00:27;3.09;78.03
67722;SHT31;58309;45.292;11.820;2023-03-01T04:02:53;3.18;77.61
67722;SHT31;58309;45.292;11.820;2023-03-01T04:05:22;3.28;77.04
67722;SHT31;58309;45.292;11.820;2023-03-01T04:07:48;3.28;77.19
67722;SHT31;58309;45.292;11.820;2023-03-01T04:10:16;3.29;77.29
67722;SHT31;58309;45.292;11.820;2023-03-01T04:12:42;3.35;76.92
67722;SHT31;58309;45.292;11.820;2023-03-01T04:15:10;3.40;76.83
67722;SHT31;58309;45.292;11.820;2023-03-01T04:17:47;3.45;76.78
67722;SHT31;58309;45.292;11.820;2023-03-01T04:22:56;3.55;76.44
67722;SHT31;58309;45.292;11.820;2023-03-01T04:25:26;3.51;76.99
67722;SHT31;58309;45.292;11.820;2023-03-01T04:27:51;3.46;77.39
67722;SHT31;58309;45.292;11.820;2023-03-01T04:30:17;3.45;77.47
67722;SHT31;58309;45.292;11.820;2023-03-01T04:32:42;3.56;76.79
67722;SHT31;58309;45.292;11.820;2023-03-01T04:35:08;3.59;76.84
67722;SHT31;58309;45.292;11.820;2023-03-01T04:37:34;3.56;77.45
67722;SHT31;58309;45.292;11.820;2023-03-01T04:40:01;3.53;77.71
67722;SHT31;58309;45.292;11.820;2023-03-01T04:42:37;3.60;77.09
67722;SHT31;58309;45.292;11.820;2023-03-01T04:45:03;3.63;76.97
67722;SHT31;58309;45.292;11.820;2023-03-01T04:47:44;3.66;76.89
67722;SHT31;58309;45.292;11.820;2023-03-01T04:50:13;3.70;77.14
67722;SHT31;58309;45.292;11.820;2023-03-01T04:52:38;3.69;77.00
67722;SHT31;58309;45.292;11.820;2023-03-01T04:55:05;3.70;76.78
67722;SHT31;58309;45.292;11.820;2023-03-01T04:57:31;3.72;76.67
67722;SHT31;58309;45.292;11.820;2023-03-01T04:59:57;3.75;76.53
67722;SHT31;58309;45.292;11.820;2023-03-01T05:02:22;3.79;76.45
67722;SHT31;58309;45.292;11.820;2023-03-01T05:04:48;3.89;75.36
67722;SHT31;58309;45.292;11.820;2023-03-01T05:07:14;3.90;75.52
67722;SHT31;58309;45.292;11.820;2023-03-01T05:09:45;3.94;75.02
67722;SHT31;58309;45.292;11.820;2023-03-01T05:12:11;3.96;75.32
67722;SHT31;58309;45.292;11.820;2023-03-01T05:14:37;3.98;75.72
67722;SHT31;58309;45.292;11.820;2023-03-01T05:17:03;4.01;75.24
67722;SHT31;58309;45.292;11.820;2023-03-01T05:19:30;4.03;75.40
67722;SHT31;58309;45.292;11.820;2023-03-01T05:21:57;4.03;75.37
67722;SHT31;58309;45.292;11.820;2023-03-01T05:24:33;4.03;75.28
67722;SHT31;58309;45.292;11.820;2023-03-01T05:26:59;4.04;75.15
67722;SHT31;58309;45.292;11.820;2023-03-01T05:29:26;4.06;75.32
67722;SHT31;58309;45.292;11.820;2023-03-01T05:31:55;4.07;75.52
67722;SHT31;58309;45.292;11.820;2023-03-01T05:34:29;4.07;75.48
67722;SHT31;58309;45.292;11.820;2023-03-01T05:36:55;4.08;75.33
67722;SHT31;58309;45.292;11.820;2023-03-01T05:39:26;4.13;75.12
67722;SHT31;58309;45.292;11.820;2023-03-01T05:41:53;4.16;75.07
67722;SHT31;58309;45.292;11.820;2023-03-01T05:44:19;4.16;74.92
67722;SHT31;58309;45.292;11.820;2023-03-01T05:46:45;4.16;74.85
67722;SHT31;58309;45.292;11.820;2023-03-01T05:49:11;4.18;74.34
67722;SHT31;58309;45.292;11.820;2023-03-01T05:51:39;4.21;74.32
67722;SHT31;58309;45.292;11.820;2023-03-01T05:54:04;4.22;74.81
67722;SHT31;58309;45.292;11.820;2023-03-01T05:56:36;4.25;74.94
67722;SHT31;58309;45.292;11.820;2023-03-01T05:59:02;4.30;74.44
67722;SHT31;58309;45.292;11.820;2023-03-01T06:01:28;4.31;74.84
67722;SHT31;58309;45.292;11.820;2023-03-01T06:03:55;4.37;74.41
67722;SHT31;58309;45.292;11.820;2023-03-01T06:06:22;4.40;74.60
67722;SHT31;58309;45.292;11.820;2023-03-01T06:08:47;4.41;74.53
67722;SHT31;58309;45.292;11.820;2023-03-01T06:11:13;4.44;74.58
67722;SHT31;58309;45.292;11.820;2023-03-01T06:13:38;4.44;74.30
67722;SHT31;58309;45.292;11.820;2023-03-01T06:16:05;4.47;74.47
67722;SHT31;58309;45.292;11.820;2023-03-01T06:18:31;4.49;74.68
67722;SHT31;58309;45.292;11.820;2023-03-01T06:20:57;4.51;74.51
67722;SHT31;58309;45.292;11.820;2023-03-01T06:23:23;4.52;74.78
67722;SHT31;58309;45.292;11.820;2023-03-01T06:25:49;4.59;74.48
67722;SHT31;58309;45.292;11.820;2023-03-01T06:28:15;4.59;74.56
67722;SHT31;58309;45.292;11.820;2023-03-01T06:30:40;4.71;74.49
67722;SHT31;58309;45.292;11.820;2023-03-01T06:33:06;4.76;73.64
67722;SHT31;58309;45.292;11.820;2023-03-01T06:35:31;4.85;73.35
67722;SHT31;58309;45.292;11.820;2023-03-01T06:37:59;4.92;72.79
67722;SHT31;58309;45.292;11.820;2023-03-01T06:40:25;4.97;73.36
67722;SHT31;58309;45.292;11.820;2023-03-01T06:42:51;5.03;73.89
67722;SHT31;58309;45.292;11.820;2023-03-01T06:45:18;5.03;73.09
67722;SHT31;58309;45.292;11.820;2023-03-01T06:47:44;5.09;72.60
67722;SHT31;58309;45.292;11.820;2023-03-01T06:50:10;5.15;72.37
67722;SHT31;58309;45.292;11.820;2023-03-01T06:52:36;5.22;73.17
67722;SHT31;58309;45.292;11.820;2023-03-01T06:55:01;5.28;72.88
67722;SHT31;58309;45.292;11.820;2023-03-01T06:57:27;5.36;72.27
67722;SHT31;58309;45.292;11.820;2023-03-01T06:59:53;5.44;72.60
67722;SHT31;58309;45.292;11.820;2023-03-01T07:02:18;5.57;71.38
67722;SHT31;58309;45.292;11.820;2023-03-01T07:04:44;5.64;71.66
67722;SHT31;58309;45.292;11.820;2023-03-01T07:07:10;5.68;72.08
67722;SHT31;58309;45.292;11.820;2023-03-01T07:09:35;5.79;71.04
67722;SHT31;58309;45.292;11.820;2023-03-01T07:12:01;5.91;71.45
67722;SHT31;58309;45.292;11.820;2023-03-01T07:14:26;5.98;70.86
67722;SHT31;58309;45.292;11.820;2023-03-01T07:16:53;5.98;70.77
67722;SHT31;58309;45.292;11.820;2023-03-01T07:19:20;5.99;70.97
67722;SHT31;58309;45.292;11.820;2023-03-01T07:21:46;6.02;71.18
67722;SHT31;58309;45.292;11.820;2023-03-01T07:24:12;6.12;70.88
67722;SHT31;58309;45.292;11.820;2023-03-01T07:26:37;6.12;70.65
67722;SHT31;58309;45.292;11.820;2023-03-01T07:29:05;6.22;70.55
67722;SHT31;58309;45.292;11.820;2023-03-01T07:31:31;6.22;70.25
67722;SHT31;58309;45.292;11.820;2023-03-01T07:33:57;6.22;70.62
67722;SHT31;58309;45.292;11.820;2023-03-01T07:36:23;6.23;70.95
67722;SHT31;58309;45.292;11.820;2023-03-01T07:38:49;6.23;70.97
67722;SHT31;58309;45.292;11.820;2023-03-01T07:41:15;6.28;71.59
67722;SHT31;58309;45.292;11.820;2023-03-01T07:43:40;6.29;70.71
67722;SHT31;58309;45.292;11.820;2023-03-01T07:46:06;6.33;71.26
67722;SHT31;58309;45.292;11.820;2023-03-01T07:48:32;6.40;71.64
67722;SHT31;58309;45.292;11.820;2023-03-01T07:51:03;6.47;71.25
67722;SHT31;58309;45.292;11.820;2023-03-01T07:53:29;6.54;71.36
67722;SHT31;58309;45.292;11.820;2023-03-01T07:56:10;6.61;70.99
67722;SHT31;58309;45.292;11.820;2023-03-01T07:58:41;6.67;70.25
67722;SHT31;58309;45.292;11.820;2023-03-01T08:01:10;6.80;71.58
67722;SHT31;58309;45.292;11.820;2023-03-01T08:03:37;6.85;70.15
67722;SHT31;58309;45.292;11.820;2023-03-01T08:06:04;6.91;69.49
67722;SHT31;58309;45.292;11.820;2023-03-01T08:08:30;6.94;70.19
67722;SHT31;58309;45.292;11.820;2023-03-01T08:10:56;7.04;70.08
67722;SHT31;58309;45.292;11.820;2023-03-01T08:13:22;7.01;69.85
67722;SHT31;58309;45.292;11.820;2023-03-01T08:15:49;7.07;69.97
67722;SHT31;58309;45.292;11.820;2023-03-01T08:18:16;7.15;69.76
67722;SHT31;58309;45.292;11.820;2023-03-01T08:20:41;7.28;69.63
67722;SHT31;58309;45.292;11.820;2023-03-01T08:23:07;7.42;68.05
67722;SHT31;58309;45.292;11.820;2023-03-01T08:25:32;7.50;67.96
67722;SHT31;58309;45.292;11.820;2023-03-01T08:27:58;7.65;67.15
67722;SHT31;58309;45.292;11.820;2023-03-01T08:30:23;7.77;67.37
67722;SHT31;58309;45.292;11.820;2023-03-01T08:32:50;7.90;67.04
67722;SHT31;58309;45.292;11.820;2023-03-01T08:35:16;7.94;66.08
67722;SHT31;58309;45.292;11.820;2023-03-01T08:37:41;8.05;66.46
67722;SHT31;58309;45.292;11.820;2023-03-01T08:40:07;8.15;66.31
67722;SHT31;58309;45.292;11.820;2023-03-01T08:42:35;8.42;66.31
67722;SHT31;58309;45.292;11.820;2023-03-01T08:45:01;8.61;64.48
67722;SHT31;58309;45.292;11.820;2023-03-01T08:47:27;8.80;63.47
67722;SHT31;58309;45.292;11.820;2023-03-01T08:49:52;9.20;64.33
67722;SHT31;58309;45.292;11.820;2023-03-01T08:52:19;9.41;62.95
67722;SHT31;58309;45.292;11.820;2023-03-01T08:54:47;9.59;62.89
67722;SHT31;58309;45.292;11.820;2023-03-01T08:57:12;9.59;61.91
67722;SHT31;58309;45.292;11.820;2023-03-01T08:59:38;9.65;62.25
67722;SHT31;58309;45.292;11.820;2023-03-01T09:02:05;9.37;61.44
67722;SHT31;58309;45.292;11.820;2023-03-01T09:04:31;9.28;62.51
67722;SHT31;58309;45.292;11.820;2023-03-01T09:06:56;9.23;60.96
67722;SHT31;58309;45.292;11.820;2023-03-01T09:09:22;9.30;62.32
67722;SHT31;58309;45.292;11.820;2023-03-01T09:11:47;9.37;62.72
67722;SHT31;58309;45.292;11.820;2023-03-01T09:14:15;9.38;60.87
67722;SHT31;58309;45.292;11.820;2023-03-01T09:16:41;9.64;59.76
67722;SHT31;58309;45.292;11.820;2023-03-01T09:19:06;9.83;59.06
67722;SHT31;58309;45.292;11.820;2023-03-01T09:21:32;9.85;58.57
67722;SHT31;58309;45.292;11.820;2023-03-01T09:23:58;9.92;58.30
67722;SHT31;58309;45.292;11.820;2023-03-01T09:26:24;9.91;57.84
67722;SHT31;58309;45.292;11.820;2023-03-01T09:28:52;9.98;57.81
67722;SHT31;58309;45.292;11.820;2023-03-01T09:31:19;10.05;56.97
67722;SHT31;58309;45.292;11.820;2023-03-01T09:33:48;10.32;57.49
67722;SHT31;58309;45.292;11.820;2023-03-01T09:36:16;10.60;57.10
67722;SHT31;58309;45.292;11.820;2023-03-01T09:38:43;10.67;57.40
67722;SHT31;58309;45.292;11.820;2023-03-01T09:44:09;10.92;55.50
67722;SHT31;58309;45.292;11.820;2023-03-01T09:46:40;10.91;55.34
67722;SHT31;58309;45.292;11.820;2023-03-01T09:49:19;11.01;56.09
67722;SHT31;58309;45.292;11.820;2023-03-01T09:52:18;11.18;54.47
67722;SHT31;58309;45.292;11.820;2023-03-01T09:54:47;11.59;53.38
67722;SHT31;58309;45.292;11.820;2023-03-01T10:02:51;11.38;53.90
67722;SHT31;58309;45.292;11.820;2023-03-01T10:08:28;11.15;54.80
67722;SHT31;58309;45.292;11.820;2023-03-01T10:10:57;11.14;55.14
67722;SHT31;58309;45.292;11.820;2023-03-01T10:13:47;11.14;55.00
67722;SHT31;58309;45.292;11.820;2023-03-01T10:16:32;11.18;55.05
67722;SHT31;58309;45.292;11.820;2023-03-01T10:19:02;11.21;55.26
67722;SHT31;58309;45.292;11.820;2023-03-01T10:21:29;11.43;54.71
67722;SHT31;58309;45.292;11.820;2023-03-01T10:24:15;11.39;54.86
67722;SHT31;58309;45.292;11.820;2023-03-01T10:26:44;11.28;53.90
67722;SHT31;58309;45.292;11.820;2023-03-01T10:29:13;11.19;54.11
67722;SHT31;58309;45.292;11.820;2023-03-01T10:31:46;11.15;55.80
67722;SHT31;58309;45.292;11.820;2023-03-01T10:36:47;11.12;55.27
67722;SHT31;58309;45.292;11.820;2023-03-01T10:39:16;10.77;54.74
67722;SHT31;58309;45.292;11.820;2023-03-01T10:42:03;10.54;55.50
67722;SHT31;58309;45.292;11.820;2023-03-01T10:44:43;10.46;56.97
67722;SHT31;58309;45.292;11.820;2023-03-01T10:47:21;10.37;56.71
67722;SHT31;58309;45.292;11.820;2023-03-01T10:49:58;10.36;57.62
67722;SHT31;58309;45.292;11.820;2023-03-01T10:54:58;10.26;58.96
67722;SHT31;58309;45.292;11.820;2023-03-01T10:57:34;10.16;58.08
67722;SHT31;58309;45.292;11.820;2023-03-01T11:00:24;10.03;59.19
67722;SHT31;58309;45.292;11.820;2023-03-01T11:03:11;9.93;59.77
67722;SHT31;58309;45.292;11.820;2023-03-01T11:08:45;9.85;60.95
67722;SHT31;58309;45.292;11.820;2023-03-01T11:16:42;9.59;61.92
67722;SHT31;58309;45.292;11.820;2023-03-01T11:21:39;9.35;60.65
67722;SHT31;58309;45.292;11.820;2023-03-01T11:24:09;9.31;60.80
67722;SHT31;58309;45.292;11.820;2023-03-01T11:26:42;9.30;60.50
67722;SHT31;58309;45.292;11.820;2023-03-01T11:29:40;9.23;60.61
67722;SHT31;58309;45.292;11.820;2023-03-01T11:32:08;9.23;61.02
67722;SHT31;58309;45.292;11.820;2023-03-01T11:34:57;9.26;61.68
67722;SHT31;58309;45.292;11.820;2023-03-01T11:37:41;9.30;62.18
67722;SHT31;58309;45.292;11.820;2023-03-01T11:40:25;9.26;61.02
67722;SHT31;58309;45.292;11.820;2023-03-01T11:46:23;9.06;62.82
67722;SHT31;58309;45.292;11.820;2023-03-01T11:56:41;8.59;66.84
67722;SHT31;58309;45.292;11.820;2023-03-01T12:10:27;8.55;67.13
67722;SHT31;58309;45.292;11.820;2023-03-01T12:16:03;8.68;65.30
67722;SHT31;58309;45.292;11.820;2023-03-01T12:18:58;8.68;65.74
67722;SHT31;58309;45.292;11.820;2023-03-01T12:21:30;8.68;66.57
67722;SHT31;58309;45.292;11.820;2023-03-01T12:29:41;8.62;65.94
67722;SHT31;58309;45.292;11.820;2023-03-01T12:38:18;8.42;66.47
67722;SHT31;58309;45.292;11.820;2023-03-01T12:46:23;8.24;68.15
67722;SHT31;58309;45.292;11.820;2023-03-01T12:51:30;8.24;68.07
67722;SHT31;58309;45.292;11.820;2023-03-01T12:53:58;8.27;68.31
67722;SHT31;58309;45.292;11.820;2023-03-01T12:56:28;8.28;68.64
67722;SHT31;58309;45.292;11.820;2023-03-01T12:58:57;8.31;68.56
67722;SHT31;58309;45.292;11.820;2023-03-01T13:10:17;8.12;71.59
67722;SHT31;58309;45.292;11.820;2023-03-01T13:17:49;7.93;73.93
67722;SHT31;58309;45.292;11.820;2023-03-01T13:20:21;7.84;75.64
67722;SHT31;58309;45.292;11.820;2023-03-01T13:23:00;7.76;74.79
67722;SHT31;58309;45.292;11.820;2023-03-01T13:25:26;7.62;77.19
67722;SHT31;58309;45.292;11.820;2023-03-01T13:31:06;7.45;77.50
67722;SHT31;58309;45.292;11.820;2023-03-01T13:36:00;7.22;77.92
67722;SHT31;58309;45.292;11.820;2023-03-01T13:46:59;6.81;81.79
67722;SHT31;58309;45.292;11.820;2023-03-01T13:49:29;6.74;82.53
67722;SHT31;58309;45.292;11.820;2023-03-01T13:51:58;6.61;85.14
67722;SHT31;58309;45.292;11.820;2023-03-01T13:54:32;6.51;84.65
67722;SHT31;58309;45.292;11.820;2023-03-01T13:57:00;6.51;84.03
67722;SHT31;58309;45.292;11.820;2023-03-01T13:59:26;6.40;85.62
67722;SHT31;58309;45.292;11.820;2023-03-01T14:01:55;6.33;85.82
67722;SHT31;58309;45.292;11.820;2023-03-01T14:04:26;6.33;87.32
67722;SHT31;58309;45.292;11.820;2023-03-01T14:07:19;6.29;88.26
67722;SHT31;58309;45.292;11.820;2023-03-01T14:09:47;6.34;86.95
67722;SHT31;58309;45.292;11.820;2023-03-01T14:17:55;6.25;88.42
67722;SHT31;58309;45.292;11.820;2023-03-01T14:20:31;6.26;88.07
67722;SHT31;58309;45.292;11.820;2023-03-01T14:23:02;6.20;89.98
67722;SHT31;58309;45.292;11.820;2023-03-01T14:25:35;6.22;89.64
67722;SHT31;58309;45.292;11.820;2023-03-01T14:28:30;6.20;89.43
67722;SHT31;58309;45.292;11.820;2023-03-01T14:31:00;6.19;90.17
67722;SHT31;58309;45.292;11.820;2023-03-01T14:33:28;6.10;90.27
67722;SHT31;58309;45.292;11.820;2023-03-01T14:38:47;6.06;90.15
67722;SHT31;58309;45.292;11.820;2023-03-01T14:41:22;6.08;90.31
67722;SHT31;58309;45.292;11.820;2023-03-01T14:43:54;6.01;92.24
67722;SHT31;58309;45.292;11.820;2023-03-01T14:48:53;5.94;92.70
67722;SHT31;58309;45.292;11.820;2023-03-01T14:51:19;5.92;93.24
67722;SHT31;58309;45.292;11.820;2023-03-01T14:53:45;5.88;93.12
67722;SHT31;58309;45.292;11.820;2023-03-01T14:56:15;5.88;94.15
67722;SHT31;58309;45.292;11.820;2023-03-01T14:58:45;5.82;94.80
67722;SHT31;58309;45.292;11.820;2023-03-01T15:01:16;5.82;95.09
67722;SHT31;58309;45.292;11.820;2023-03-01T15:03:47;5.87;93.84
67722;SHT31;58309;45.292;11.820;2023-03-01T15:06:20;5.89;93.47
67722;SHT31;58309;45.292;11.820;2023-03-01T15:08:50;5.88;93.11
67722;SHT31;58309;45.292;11.820;2023-03-01T15:13:48;6.03;91.39
67722;SHT31;58309;45.292;11.820;2023-03-01T15:16:29;6.26;89.81
67722;SHT31;58309;45.292;11.820;2023-03-01T15:18:58;6.13;91.66
67722;SHT31;58309;45.292;11.820;2023-03-01T15:21:27;6.16;90.84
67722;SHT31;58309;45.292;11.820;2023-03-01T15:24:06;6.15;90.98
67722;SHT31;58309;45.292;11.820;2023-03-01T15:26:44;6.15;90.92
67722;SHT31;58309;45.292;11.820;2023-03-01T15:29:32;6.13;91.32
67722;SHT31;58309;45.292;11.820;2023-03-01T15:32:02;6.03;92.05
67722;SHT31;58309;45.292;11.820;2023-03-01T15:34:36;5.95;92.72
67722;SHT31;58309;45.292;11.820;2023-03-01T15:37:06;5.91;93.28
67722;SHT31;58309;45.292;11.820;2023-03-01T15:39:40;5.95;93.13
67722;SHT31;58309;45.292;11.820;2023-03-01T15:42:17;6.10;91.86
67722;SHT31;58309;45.292;11.820;2023-03-01T15:47:34;6.18;90.94
67722;SHT31;58309;45.292;11.820;2023-03-01T15:50:01;6.15;92.21
67722;SHT31;58309;45.292;11.820;2023-03-01T15:52:34;6.02;93.23
67722;SHT31;58309;45.292;11.820;2023-03-01T15:55:05;6.15;92.28
67722;SHT31;58309;45.292;11.820;2023-03-01T15:57:31;6.26;91.75
67722;SHT31;58309;45.292;11.820;2023-03-01T15:59:57;6.32;91.29
67722;SHT31;58309;45.292;11.820;2023-03-01T16:02:23;6.26;92.27
67722;SHT31;58309;45.292;11.820;2023-03-01T16:04:50;6.16;93.34
67722;SHT31;58309;45.292;11.820;2023-03-01T16:07:15;6.13;93.59
67722;SHT31;58309;45.292;11.820;2023-03-01T16:12:56;6.06;94.08
67722;SHT31;58309;45.292;11.820;2023-03-01T16:15:25;6.13;93.15
67722;SHT31;58309;45.292;11.820;2023-03-01T16:17:51;6.03;94.33
67722;SHT31;58309;45.292;11.820;2023-03-01T16:20:17;5.99;94.96
67722;SHT31;58309;45.292;11.820;2023-03-01T16:22:43;5.99;94.67
67722;SHT31;58309;45.292;11.820;2023-03-01T16:25:15;5.96;94.82
67722;SHT31;58309;45.292;11.820;2023-03-01T16:27:46;5.98;94.43
67722;SHT31;58309;45.292;11.820;2023-03-01T16:30:13;6.03;94.16
67722;SHT31;58309;45.292;11.820;2023-03-01T16:32:43;5.98;94.59
67722;SHT31;58309;45.292;11.820;2023-03-01T16:35:11;5.91;95.47
67722;SHT31;58309;45.292;11.820;2023-03-01T16:37:37;5.81;96.64
67722;SHT31;58309;45.292;11.820;2023-03-01T16:40:04;5.81;96.48
67722;SHT31;58309;45.292;11.820;2023-03-01T16:42:34;5.72;97.10
67722;SHT31;58309;45.292;11.820;2023-03-01T16:45:00;5.74;96.57
67722;SHT31;58309;45.292;11.820;2023-03-01T16:47:27;5.68;96.66
67722;SHT31;58309;45.292;11.820;2023-03-01T16:49:53;5.65;97.17
67722;SHT31;58309;45.292;11.820;2023-03-01T16:52:20;5.74;95.95
67722;SHT31;58309;45.292;11.820;2023-03-01T16:54:45;5.79;94.39
67722;SHT31;58309;45.292;11.820;2023-03-01T16:57:11;5.71;94.97
67722;SHT31;58309;45.292;11.820;2023-03-01T16:59:37;5.65;95.44
67722;SHT31;58309;45.292;11.820;2023-03-01T17:02:04;5.62;94.86
67722;SHT31;58309;45.292;11.820;2023-03-01T17:04:31;5.52;95.75
67722;SHT31;58309;45.292;11.820;2023-03-01T17:06:56;5.52;95.48
67722;SHT31;58309;45.292;11.820;2023-03-01T17:09:22;5.58;95.31
67722;SHT31;58309;45.292;11.820;2023-03-01T17:11:51;5.65;94.02
67722;SHT31;58309;45.292;11.820;2023-03-01T17:14:16;5.69;92.85
67722;SHT31;58309;45.292;11.820;2023-03-01T17:16:43;5.64;93.36
67722;SHT31;58309;45.292;11.820;2023-03-01T17:19:09;5.59;94.22
67722;SHT31;58309;45.292;11.820;2023-03-01T17:21:35;5.59;93.61
67722;SHT31;58309;45.292;11.820;2023-03-01T17:24:01;5.65;93.43
67722;SHT31;58309;45.292;11.820;2023-03-01T17:26:27;5.59;93.74
67722;SHT31;58309;45.292;11.820;2023-03-01T17:28:54;5.64;93.69
67722;SHT31;58309;45.292;11.820;2023-03-01T17:31:21;5.65;93.87
67722;SHT31;58309;45.292;11.820;2023-03-01T17:33:47;5.68;93.36
67722;SHT31;58309;45.292;11.820;2023-03-01T17:36:14;5.65;93.88
67722;SHT31;58309;45.292;11.820;2023-03-01T17:38:40;5.64;93.81
67722;SHT31;58309;45.292;11.820;2023-03-01T17:41:06;5.75;92.73
67722;SHT31;58309;45.292;11.820;2023-03-01T17:43:32;5.68;94.20
67722;SHT31;58309;45.292;11.820;2023-03-01T17:45:59;5.74;93.36
67722;SHT31;58309;45.292;11.820;2023-03-01T17:48:25;5.72;93.41
67722;SHT31;58309;45.292;11.820;2023-03-01T17:50:50;5.81;92.74